KBJJ/BJJ METAR and TAF weather

Enter ICAO airport designator
Station Type Date Time Source
KBJJ METAR 2018/07/21 12:56 UTC NOAA

KBJJ 211256Z AUTO 16008KT 10SM OVC013 18/17 A2983 RMK AO2 SLP096 T01830172


Station Type Date Time Source
KBJJ Decoded METAR 2018/07/21 12:56 UTC NOAA

WOOSTER WAYNE COUNTY AIRPORT, OH, United States (KBJJ) 40-52N 81-53W 343M
Jul 21, 2018 - 08:56 AM EDT / 2018.07.21 1256 UTC
Wind: from the SSE (160 degrees) at 9 MPH (8 KT):0
Visibility: 10 mile(s):0
Sky conditions: overcast
Temperature: 64.9 F (18.3 C)
Dew Point: 63.0 F (17.2 C)
Relative Humidity: 93%
Pressure (altimeter): 29.83 in. Hg (1010 hPa)
ob: KBJJ 211256Z AUTO 16008KT 10SM OVC013 18/17 A2983 RMK AO2 SLP096 T01830172
cycle: 13

Station Type Date Time Source
KBJJ TAF UTC NOAA

Error!


Example: see airport list